M/T Woomin — D8SD — position and weather

sailwx.info

Track history (hours):
 
Tides and Currents Weather Stations Pressure Air Temp Water Temp Dewpoint Dewpoint Depression Visibility Wind Speed Wind Dir Waves Ship Positions

M/T Woomin

Last reported at 2018-Jun-15 20:47 UTC. Time now 2018-Jun-23 14:10 UTC.
Position N 31°05' E 122°53'.

Length 110 m; draft 5.1 m.

Type: Ship. MMSI: 440520000.

Date/timePositionNaut miles runAvg speedWind from/ knotsBaromVisibWave heightAir tempDewpointWater temp
2018-Jun-15 20:47N 31°05' E 122°53'2912.1
2018-Jun-15 18:22N 31°02' E 122°19'712.1
2018-Jun-15 17:47N 31°03' E 122°11'311.7
2018-Jun-15 17:30N 31°03' E 122°08'611.7
2018-Jun-15 17:00N 31°05' E 122°01'6 9.3
2018-Jun-15 16:25N 31°08' E 121°55'4 8.9
2018-Jun-15 16:01N 31°10' E 121°52'8710.7
2018-Jun-15 07:50N 32°02' E 120°30'3 8.6
2018-Jun-15 07:30N 32°01' E 120°27'4 0.2
2018-Jun-14 11:01N 31°58' E 120°23'0 4.3
2018-Jun-14 10:57N 31°58' E 120°24'3 7.1
2018-Jun-14 10:31N 31°59' E 120°27'3 6.8
2018-Jun-14 10:00N 32°02' E 120°29'8110.8
2018-Jun-14 02:28N 31°15' E 121°47'714.2
2018-Jun-14 02:00N 31°10' E 121°52'713.3
2018-Jun-14 01:30N 31°06' E 121°58'712.5
2018-Jun-14 00:58N 31°04' E 122°06'511.4
2018-Jun-14 00:30N 31°03' E 122°12'4 9.0
2018-Jun-14 00:00N 31°03' E 122°17'5 9.4
2018-Jun-13 23:30N 31°02' E 122°22'14 5.4
2018-Jun-13 20:51N 31°01' E 122°39'0 0.0
2018-Jun-13 20:15N 31°01' E 122°39'0 0.0
2018-Jun-13 20:00N 31°01' E 122°39'27 3.1
2018-Jun-13 11:05N 31°14' E 123°07'513.5
2018-Jun-13 10:43N 31°17' E 123°12'313.7
2018-Jun-13 10:30N 31°18' E 123°15'  
2018-Jun-09 07:31N 30°33' E 122°38'0 9.4
2018-Jun-09 07:30N 30°33' E 122°37'3313.0
2018-Jun-09 04:58N 30°31' E 121°59'1014.3
2018-Jun-09 04:14N 30°29' E 121°47'314.5
2018-Jun-09 04:00N 30°29' E 121°43'1 0.0
2018-Jun-07 14:20N 30°30' E 121°42'411.1
2018-Jun-07 14:00N 30°30' E 121°47'  
Track history (hours):
 
Tides and Currents Weather Stations Pressure Air Temp Water Temp Dewpoint Dewpoint Depression Visibility Wind Speed Wind Dir Waves Ship Positions

M/T Woomin

Last reported at 2018-Jun-15 20:47 UTC. Time now 2018-Jun-23 14:10 UTC.
Position N 31°05' E 122°53'.

Length 110 m; draft 5.1 m.

Type: Ship. MMSI: 440520000.

Date/timePositionNaut miles runAvg speedWind from/ knotsBaromVisibWave heightAir tempDewpointWater temp
2018-Jun-15 20:47N 31°05' E 122°53'2912.1
2018-Jun-15 18:22N 31°02' E 122°19'712.1
2018-Jun-15 17:47N 31°03' E 122°11'311.7
2018-Jun-15 17:30N 31°03' E 122°08'611.7
2018-Jun-15 17:00N 31°05' E 122°01'6 9.3
2018-Jun-15 16:25N 31°08' E 121°55'4 8.9
2018-Jun-15 16:01N 31°10' E 121°52'8710.7
2018-Jun-15 07:50N 32°02' E 120°30'3 8.6
2018-Jun-15 07:30N 32°01' E 120°27'4 0.2
2018-Jun-14 11:01N 31°58' E 120°23'0 4.3
2018-Jun-14 10:57N 31°58' E 120°24'3 7.1
2018-Jun-14 10:31N 31°59' E 120°27'3 6.8
2018-Jun-14 10:00N 32°02' E 120°29'8110.8
2018-Jun-14 02:28N 31°15' E 121°47'714.2
2018-Jun-14 02:00N 31°10' E 121°52'713.3
2018-Jun-14 01:30N 31°06' E 121°58'712.5
2018-Jun-14 00:58N 31°04' E 122°06'511.4
2018-Jun-14 00:30N 31°03' E 122°12'4 9.0
2018-Jun-14 00:00N 31°03' E 122°17'5 9.4
2018-Jun-13 23:30N 31°02' E 122°22'14 5.4
2018-Jun-13 20:51N 31°01' E 122°39'0 0.0
2018-Jun-13 20:15N 31°01' E 122°39'0 0.0
2018-Jun-13 20:00N 31°01' E 122°39'27 3.1
2018-Jun-13 11:05N 31°14' E 123°07'513.5
2018-Jun-13 10:43N 31°17' E 123°12'313.7
2018-Jun-13 10:30N 31°18' E 123°15'  
2018-Jun-09 07:31N 30°33' E 122°38'0 9.4
2018-Jun-09 07:30N 30°33' E 122°37'3313.0
2018-Jun-09 04:58N 30°31' E 121°59'1014.3
2018-Jun-09 04:14N 30°29' E 121°47'314.5
2018-Jun-09 04:00N 30°29' E 121°43'1 0.0
2018-Jun-07 14:20N 30°30' E 121°42'411.1
2018-Jun-07 14:00N 30°30' E 121°47'  

Dump ship's entire track history